Time,TemperatureF,DewpointF,PressureIn,WindDirection,WindDirectionDegrees,WindSpeedMPH,WindSpeedGustMPH,Humidity,HourlyPrecipIn,Conditions,Clouds,dailyrainin,SoftwareType,DateUTC
2013-01-29 00:00:00,32.2,31.2,29.93,ESE,109,0.0,1.0,96,0.00,,,0.00,VWS V14.01,2013-01-29 05:00:00,
2013-01-29 00:01:00,32.2,31.2,29.93,ESE,109,0.0,1.0,96,0.00,,,0.00,VWS V14.01,2013-01-29 05:01:00,
2013-01-29 00:03:00,32.2,31.2,29.93,ESE,109,0.0,0.0,96,0.00,,,0.00,VWS V14.01,2013-01-29 05:03:00,
2013-01-29 00:08:00,32.2,31.2,29.93,ESE,109,0.0,1.0,96,0.00,,,0.00,VWS V14.01,2013-01-29 05:08:00,
2013-01-29 00:13:00,32.2,31.2,29.92,ESE,109,0.0,1.0,96,0.00,,,0.00,VWS V14.01,2013-01-29 05:13:00,
2013-01-29 00:18:00,32.2,31.2,29.92,ESE,109,0.0,1.0,96,0.00,,,0.00,VWS V14.01,2013-01-29 05:18:00,
2013-01-29 00:23:00,32.1,31.1,29.92,ESE,109,1.0,1.0,96,0.00,,,0.00,VWS V14.01,2013-01-29 05:23:00,
2013-01-29 00:28:00,32.1,31.1,29.92,ESE,109,1.0,2.0,96,0.00,,,0.00,VWS V14.01,2013-01-29 05:28:00,
2013-01-29 00:30:00,32.0,31.2,29.94,ESE,109,0.0,1.0,97,0.00,,,0.00,VWS V14.01,2013-01-29 05:30:00,
2013-01-29 00:33:00,32.1,31.1,29.92,ESE,109,0.0,0.0,96,0.00,,,0.00,VWS V14.01,2013-01-29 05:33:00,
2013-01-29 00:38:00,32.1,31.4,29.92,ESE,109,0.0,1.0,97,0.00,,,0.00,VWS V14.01,2013-01-29 05:38:00,
2013-01-29 00:43:00,32.1,31.4,29.92,ESE,109,0.0,1.0,97,0.00,,,0.00,VWS V14.01,2013-01-29 05:43:00,
2013-01-29 00:48:00,32.1,31.4,29.92,ESE,109,0.0,1.0,97,0.00,,,0.00,VWS V14.01,2013-01-29 05:48:00,
2013-01-29 00:53:00,32.1,31.4,29.92,ESE,109,0.0,1.0,97,0.00,,,0.00,VWS V14.01,2013-01-29 05:53:00,
2013-01-29 00:58:00,32.1,31.4,29.92,ESE,109,0.0,1.0,97,0.00,,,0.00,VWS V14.01,2013-01-29 05:58:00,
2013-01-29 01:03:00,32.1,31.4,29.92,ESE,109,0.0,0.0,97,0.00,,,0.00,VWS V14.01,2013-01-29 06:03:00,
2013-01-29 01:08:00,32.1,31.4,29.93,ESE,109,0.0,1.0,97,0.00,,,0.00,VWS V14.01,2013-01-29 06:08:00,
2013-01-29 01:13:00,32.1,31.4,29.93,ESE,109,1.0,1.0,97,0.00,,,0.00,VWS V14.01,2013-01-29 06:13:00,
2013-01-29 01:18:00,32.1,31.4,29.93,ESE,109,0.0,1.0,97,0.00,,,0.00,VWS V14.01,2013-01-29 06:18:00,
2013-01-29 01:23:00,32.1,31.4,29.94,ESE,109,0.0,1.0,97,0.00,,,0.00,VWS V14.01,2013-01-29 06:23:00,
2013-01-29 01:28:00,32.1,31.4,29.94,ESE,109,0.0,1.0,97,0.00,,,0.00,VWS V14.01,2013-01-29 06:28:00,
2013-01-29 01:33:00,32.1,31.4,29.94,ESE,109,0.0,1.0,97,0.00,,,0.00,VWS V14.01,2013-01-29 06:33:00,
2013-01-29 01:38:00,32.1,31.4,29.94,ESE,109,1.0,1.0,97,0.00,,,0.00,VWS V14.01,2013-01-29 06:38:00,
2013-01-29 01:43:00,32.1,31.4,29.95,ESE,109,1.0,2.0,97,0.00,,,0.00,VWS V14.01,2013-01-29 06:43:00,
2013-01-29 01:48:00,32.1,31.4,29.95,ESE,109,0.0,2.0,97,0.00,,,0.00,VWS V14.01,2013-01-29 06:48:00,
2013-01-29 01:53:00,32.1,31.4,29.95,ESE,109,0.0,2.0,97,0.00,,,0.00,VWS V14.01,2013-01-29 06:53:00,
2013-01-29 01:58:00,32.1,31.4,29.95,ESE,109,0.0,2.0,97,0.00,,,0.00,VWS V14.01,2013-01-29 06:58:00,
2013-01-29 02:00:00,32.2,31.5,29.95,ESE,109,0.0,2.0,97,0.00,,,0.00,VWS V14.01,2013-01-29 07:00:00,
2013-01-29 02:03:00,32.1,31.4,29.94,ESE,109,0.0,0.0,97,0.00,,,0.00,VWS V14.01,2013-01-29 07:03:00,
2013-01-29 02:08:00,32.1,31.4,29.95,ESE,109,0.0,1.0,97,0.00,,,0.00,VWS V14.01,2013-01-29 07:08:00,
2013-01-29 02:13:00,32.1,31.4,29.95,ESE,109,0.0,1.0,97,0.00,,,0.00,VWS V14.01,2013-01-29 07:13:00,
2013-01-29 02:18:00,32.1,31.4,29.95,ESE,109,0.0,1.0,97,0.00,,,0.00,VWS V14.01,2013-01-29 07:18:00,
2013-01-29 02:23:00,32.1,31.4,29.95,ESE,109,0.0,1.0,97,0.00,,,0.00,VWS V14.01,2013-01-29 07:23:00,
2013-01-29 02:28:00,32.1,31.4,29.95,ESE,109,0.0,1.0,97,0.00,,,0.00,VWS V14.01,2013-01-29 07:28:00,
2013-01-29 02:33:00,32.1,31.4,29.95,ESE,109,0.0,1.0,97,0.00,,,0.00,VWS V14.01,2013-01-29 07:33:00,
2013-01-29 02:38:00,32.1,31.4,29.95,ESE,109,0.0,1.0,97,0.00,,,0.00,VWS V14.01,2013-01-29 07:38:00,
2013-01-29 02:43:00,32.1,31.4,29.95,ESE,109,0.0,1.0,97,0.00,,,0.00,VWS V14.01,2013-01-29 07:43:00,
2013-01-29 02:48:00,32.1,31.4,29.95,ESE,109,1.0,1.0,97,0.00,,,0.00,VWS V14.01,2013-01-29 07:48:00,
2013-01-29 02:53:00,32.1,31.4,29.95,ESE,109,0.0,1.0,97,0.00,,,0.00,VWS V14.01,2013-01-29 07:53:00,
2013-01-29 02:58:00,32.1,31.4,29.95,ESE,109,0.0,1.0,97,0.00,,,0.00,VWS V14.01,2013-01-29 07:58:00,
2013-01-29 03:03:00,32.1,31.4,29.95,ESE,109,1.0,1.0,97,0.00,,,0.00,VWS V14.01,2013-01-29 08:03:00,
2013-01-29 03:08:00,32.2,31.5,29.95,ESE,109,0.0,1.0,97,0.00,,,0.00,VWS V14.01,2013-01-29 08:08:00,
2013-01-29 03:13:00,32.1,31.4,29.95,ESE,109,0.0,1.0,97,0.00,,,0.00,VWS V14.01,2013-01-29 08:13:00,
2013-01-29 03:18:00,32.1,31.4,29.94,ESE,109,0.0,1.0,97,0.00,,,0.00,VWS V14.01,2013-01-29 08:18:00,
2013-01-29 03:23:00,32.2,31.5,29.95,ESE,109,0.0,1.0,97,0.00,,,0.00,VWS V14.01,2013-01-29 08:23:00,
2013-01-29 03:28:00,32.2,31.5,29.95,ESE,109,0.0,2.0,97,0.00,,,0.00,VWS V14.01,2013-01-29 08:28:00,
2013-01-29 03:30:00,32.1,31.4,29.96,ESE,109,0.0,3.0,97,0.00,,,0.00,VWS V14.01,2013-01-29 08:30:00,
2013-01-29 03:33:00,32.1,31.4,29.95,ESE,109,1.0,1.0,97,0.00,,,0.00,VWS V14.01,2013-01-29 08:33:00,
2013-01-29 03:38:00,32.1,31.4,29.94,ESE,109,0.0,1.0,97,0.00,,,0.00,VWS V14.01,2013-01-29 08:38:00,
2013-01-29 03:43:00,32.1,31.4,29.94,ESE,109,0.0,1.0,97,0.00,,,0.00,VWS V14.01,2013-01-29 08:43:00,
2013-01-29 03:48:00,32.1,31.4,29.94,ESE,109,0.0,1.0,97,0.00,,,0.00,VWS V14.01,2013-01-29 08:48:00,
2013-01-29 03:53:00,32.1,31.4,29.95,ESE,109,1.0,2.0,97,0.00,,,0.00,VWS V14.01,2013-01-29 08:53:00,
2013-01-29 03:58:00,32.1,31.4,29.95,ESE,109,0.0,2.0,97,0.00,,,0.00,VWS V14.01,2013-01-29 08:58:00,
2013-01-29 04:00:00,32.0,31.2,29.97,NW,319,0.0,4.0,97,0.00,,,0.00,VWS V14.01,2013-01-29 09:00:00,
2013-01-29 04:03:00,32.1,31.4,29.95,ESE,109,0.0,0.0,97,0.00,,,0.00,VWS V14.01,2013-01-29 09:03:00,
2013-01-29 04:08:00,32.1,31.4,29.95,ESE,109,0.0,1.0,97,0.00,,,0.00,VWS V14.01,2013-01-29 09:08:00,
2013-01-29 04:13:00,32.1,31.4,29.95,ESE,109,0.0,1.0,97,0.00,,,0.00,VWS V14.01,2013-01-29 09:13:00,
2013-01-29 04:18:00,32.1,31.4,29.95,ESE,109,0.0,2.0,97,0.00,,,0.00,VWS V14.01,2013-01-29 09:18:00,
2013-01-29 04:23:00,32.1,31.4,29.96,ESE,109,3.0,3.0,97,0.00,,,0.00,VWS V14.01,2013-01-29 09:23:00,
2013-01-29 04:28:00,32.1,31.4,29.96,ESE,109,1.0,3.0,97,0.00,,,0.00,VWS V14.01,2013-01-29 09:28:00,
2013-01-29 04:30:00,31.9,31.1,29.98,NW,319,3.0,3.0,97,0.00,,,0.00,VWS V14.01,2013-01-29 09:30:00,
2013-01-29 04:33:00,32.1,31.4,29.96,ESE,109,1.0,1.0,97,0.00,,,0.00,VWS V14.01,2013-01-29 09:33:00,
2013-01-29 04:38:00,32.1,31.4,29.96,ESE,109,0.0,1.0,97,0.00,,,0.00,VWS V14.01,2013-01-29 09:38:00,
2013-01-29 04:43:00,32.1,31.4,29.96,ESE,109,0.0,1.0,97,0.00,,,0.00,VWS V14.01,2013-01-29 09:43:00,
2013-01-29 04:48:00,32.0,31.2,29.96,ESE,109,3.0,3.0,97,0.00,,,0.00,VWS V14.01,2013-01-29 09:48:00,
2013-01-29 04:53:00,32.0,31.2,29.96,NW,319,2.0,4.0,97,0.00,,,0.00,VWS V14.01,2013-01-29 09:53:00,
2013-01-29 04:58:00,32.0,31.2,29.97,NW,319,1.0,4.0,97,0.00,,,0.00,VWS V14.01,2013-01-29 09:58:00,
2013-01-29 05:00:00,31.9,31.1,29.99,NW,321,0.0,3.0,97,0.00,,,0.00,VWS V14.01,2013-01-29 10:00:00,
2013-01-29 05:03:00,32.0,31.2,29.97,NW,319,1.0,1.0,97,0.00,,,0.00,VWS V14.01,2013-01-29 10:03:00,
2013-01-29 05:08:00,31.9,31.1,29.97,NW,319,1.0,2.0,97,0.00,,,0.00,VWS V14.01,2013-01-29 10:08:00,
2013-01-29 05:13:00,31.9,31.1,29.97,NW,319,1.0,2.0,97,0.00,,,0.00,VWS V14.01,2013-01-29 10:13:00,
2013-01-29 05:18:00,31.9,31.1,29.97,NW,319,0.0,3.0,97,0.00,,,0.00,VWS V14.01,2013-01-29 10:18:00,
2013-01-29 05:23:00,31.9,31.1,29.98,NW,319,0.0,3.0,97,0.00,,,0.00,VWS V14.01,2013-01-29 10:23:00,
2013-01-29 05:28:00,31.9,31.1,29.98,NW,319,1.0,3.0,97,0.00,,,0.00,VWS V14.01,2013-01-29 10:28:00,
2013-01-29 05:33:00,31.9,31.1,29.98,NW,319,1.0,3.0,97,0.00,,,0.00,VWS V14.01,2013-01-29 10:33:00,
2013-01-29 05:38:00,31.9,31.1,29.98,NW,321,1.0,3.0,97,0.00,,,0.00,VWS V14.01,2013-01-29 10:38:00,
2013-01-29 05:43:00,31.9,31.1,29.98,NW,321,1.0,3.0,97,0.00,,,0.00,VWS V14.01,2013-01-29 10:43:00,
2013-01-29 05:48:00,31.9,31.1,29.98,NW,321,0.0,3.0,97,0.00,,,0.00,VWS V14.01,2013-01-29 10:48:00,
2013-01-29 05:52:00,31.9,31.1,29.98,NW,321,2.0,3.0,97,0.00,,,0.00,VWS V14.01,2013-01-29 10:52:00,
2013-01-29 05:57:00,31.9,31.1,29.99,NW,321,0.0,3.0,97,0.00,,,0.00,VWS V14.01,2013-01-29 10:57:00,
2013-01-29 06:02:00,31.9,31.1,29.99,NW,321,1.0,3.0,97,0.00,,,0.00,VWS V14.01,2013-01-29 11:02:00,
2013-01-29 06:07:00,31.9,31.1,29.99,NW,321,0.0,3.0,97,0.00,,,0.00,VWS V14.01,2013-01-29 11:07:00,
2013-01-29 06:12:00,31.9,31.1,29.99,NW,321,0.0,3.0,97,0.00,,,0.00,VWS V14.01,2013-01-29 11:12:00,
2013-01-29 06:17:00,31.9,31.1,30.00,NW,321,0.0,3.0,97,0.00,,,0.00,VWS V14.01,2013-01-29 11:17:00,
2013-01-29 06:22:00,31.8,31.0,30.00,NW,321,0.0,3.0,97,0.00,,,0.00,VWS V14.01,2013-01-29 11:22:00,
2013-01-29 06:27:00,31.8,31.0,30.00,NW,321,0.0,3.0,97,0.00,,,0.00,VWS V14.01,2013-01-29 11:27:00,
2013-01-29 06:32:00,31.8,31.0,30.00,NW,321,1.0,1.0,97,0.00,,,0.00,VWS V14.01,2013-01-29 11:32:00,
2013-01-29 06:37:00,31.8,31.0,30.00,NW,321,1.0,1.0,97,0.00,,,0.00,VWS V14.01,2013-01-29 11:37:00,
2013-01-29 06:42:00,31.7,31.0,30.00,NW,321,1.0,1.0,97,0.00,,,0.00,VWS V14.01,2013-01-29 11:42:00,
2013-01-29 06:48:00,31.7,31.0,30.00,NW,321,2.0,2.0,97,0.00,,,0.00,VWS V14.01,2013-01-29 11:48:00,
2013-01-29 06:52:00,31.7,31.0,30.01,NW,321,1.0,2.0,97,0.00,,,0.00,VWS V14.01,2013-01-29 11:52:00,
2013-01-29 06:57:00,31.7,31.0,30.01,NW,321,1.0,2.0,97,0.00,,,0.00,VWS V14.01,2013-01-29 11:57:00,
2013-01-29 07:00:00,31.7,31.0,30.05,NW,309,1.0,5.0,97,0.00,,,0.00,VWS V14.01,2013-01-29 12:00:00,
2013-01-29 07:02:00,31.7,31.0,30.02,WNW,292,0.0,2.0,97,0.00,,,0.00,VWS V14.01,2013-01-29 12:02:00,
2013-01-29 07:07:00,31.7,31.0,30.02,North,11,2.0,3.0,97,0.00,,,0.00,VWS V14.01,2013-01-29 12:07:00,
2013-01-29 07:12:00,31.7,31.0,30.02,North,9,0.0,3.0,97,0.00,,,0.00,VWS V14.01,2013-01-29 12:12:00,
2013-01-29 07:17:00,31.6,30.9,30.02,WNW,296,0.0,3.0,97,0.00,,,0.00,VWS V14.01,2013-01-29 12:17:00,
2013-01-29 07:22:00,31.6,30.9,30.02,WNW,296,0.0,3.0,97,0.00,,,0.00,VWS V14.01,2013-01-29 12:22:00,
2013-01-29 07:27:00,31.6,30.9,30.02,NNW,329,1.0,4.0,97,0.00,,,0.00,VWS V14.01,2013-01-29 12:27:00,
2013-01-29 07:30:00,31.7,31.0,30.06,North,349,2.0,4.0,97,0.00,,,0.00,VWS V14.01,2013-01-29 12:30:00,
2013-01-29 07:32:00,31.5,30.8,30.03,NNW,329,0.0,1.0,97,0.00,,,0.00,VWS V14.01,2013-01-29 12:32:00,
2013-01-29 07:37:00,31.6,30.9,30.03,NNW,330,0.0,3.0,97,0.00,,,0.00,VWS V14.01,2013-01-29 12:37:00,
2013-01-29 07:42:00,31.6,30.9,30.04,WNW,298,1.0,5.0,97,0.00,,,0.00,VWS V14.01,2013-01-29 12:42:00,
2013-01-29 07:47:00,31.6,30.9,30.04,NW,309,1.0,5.0,97,0.00,,,0.00,VWS V14.01,2013-01-29 12:47:00,
2013-01-29 07:52:00,31.6,30.9,30.05,NW,309,0.0,5.0,97,0.00,,,0.00,VWS V14.01,2013-01-29 12:52:00,
2013-01-29 07:57:00,31.6,30.9,30.05,NW,309,1.0,5.0,97,0.00,,,0.00,VWS V14.01,2013-01-29 12:57:00,
2013-01-29 08:02:00,31.7,31.0,30.05,NW,309,2.0,3.0,97,0.00,,,0.00,VWS V14.01,2013-01-29 13:02:00,
2013-01-29 08:07:00,31.7,31.0,30.05,NW,309,1.0,3.0,97,0.00,,,0.00,VWS V14.01,2013-01-29 13:07:00,
2013-01-29 08:12:00,31.7,31.0,30.05,North,349,0.0,3.0,97,0.00,,,0.00,VWS V14.01,2013-01-29 13:12:00,
2013-01-29 08:17:00,31.7,31.0,30.05,North,349,1.0,3.0,97,0.00,,,0.00,VWS V14.01,2013-01-29 13:17:00,
2013-01-29 08:23:00,31.7,31.0,30.05,North,349,1.0,3.0,97,0.00,,,0.00,VWS V14.01,2013-01-29 13:23:00,
2013-01-29 08:28:00,31.7,31.0,30.05,North,349,1.0,4.0,97,0.00,,,0.00,VWS V14.01,2013-01-29 13:28:00,
2013-01-29 08:33:00,31.7,31.0,30.06,North,349,2.0,2.0,97,0.01,,,0.01,VWS V14.01,2013-01-29 13:33:00,
2013-01-29 08:38:00,31.8,31.0,30.06,North,349,2.0,3.0,97,0.01,,,0.01,VWS V14.01,2013-01-29 13:38:00,
2013-01-29 08:43:00,31.8,31.0,30.06,NW,306,1.0,6.0,97,0.01,,,0.01,VWS V14.01,2013-01-29 13:43:00,
2013-01-29 08:48:00,31.9,31.1,30.07,NW,306,0.0,6.0,97,0.01,,,0.01,VWS V14.01,2013-01-29 13:48:00,
2013-01-29 08:53:00,31.9,31.1,30.07,NW,306,0.0,6.0,97,0.01,,,0.01,VWS V14.01,2013-01-29 13:53:00,
2013-01-29 08:58:00,32.0,31.2,30.07,NW,306,2.0,6.0,97,0.02,,,0.02,VWS V14.01,2013-01-29 13:58:00,
2013-01-29 09:03:00,32.0,31.2,30.07,NNE,22,1.0,3.0,97,0.02,,,0.02,VWS V14.01,2013-01-29 14:03:00,
2013-01-29 09:08:00,32.0,31.2,30.08,North,5,0.0,5.0,97,0.02,,,0.02,VWS V14.01,2013-01-29 14:08:00,
2013-01-29 09:13:00,32.1,31.4,30.08,North,5,1.0,5.0,97,0.02,,,0.02,VWS V14.01,2013-01-29 14:13:00,
2013-01-29 09:18:00,32.3,31.5,30.07,North,5,1.0,5.0,97,0.02,,,0.02,VWS V14.01,2013-01-29 14:18:00,
2013-01-29 09:23:00,32.3,31.5,30.08,North,5,1.0,5.0,97,0.02,,,0.02,VWS V14.01,2013-01-29 14:23:00,
2013-01-29 09:28:00,32.4,31.6,30.08,North,5,3.0,5.0,97,0.02,,,0.02,VWS V14.01,2013-01-29 14:28:00,
2013-01-29 09:30:00,34.1,33.3,30.09,NNW,331,0.0,5.0,97,0.05,,,0.07,VWS V14.01,2013-01-29 14:30:00,
2013-01-29 09:33:00,32.5,31.7,30.07,North,10,0.0,2.0,97,0.03,,,0.03,VWS V14.01,2013-01-29 14:33:00,
2013-01-29 09:38:00,32.5,31.7,30.07,North,360,2.0,4.0,97,0.03,,,0.03,VWS V14.01,2013-01-29 14:38:00,
2013-01-29 09:43:00,32.6,31.8,30.07,North,360,0.0,4.0,97,0.03,,,0.03,VWS V14.01,2013-01-29 14:43:00,
2013-01-29 09:48:00,32.8,32.0,30.07,North,360,0.0,4.0,97,0.03,,,0.03,VWS V14.01,2013-01-29 14:48:00,
2013-01-29 09:53:00,32.9,32.1,30.07,North,360,1.0,4.0,97,0.04,,,0.04,VWS V14.01,2013-01-29 14:53:00,
2013-01-29 09:58:00,33.1,32.3,30.07,North,360,1.0,4.0,97,0.04,,,0.04,VWS V14.01,2013-01-29 14:58:00,
2013-01-29 10:03:00,33.1,32.3,30.08,NNW,344,1.0,2.0,97,0.02,,,0.04,VWS V14.01,2013-01-29 15:03:00,
2013-01-29 10:08:00,33.1,32.3,30.08,NNW,343,2.0,3.0,97,0.03,,,0.05,VWS V14.01,2013-01-29 15:08:00,
2013-01-29 10:13:00,33.3,32.5,30.08,North,350,1.0,4.0,97,0.03,,,0.05,VWS V14.01,2013-01-29 15:13:00,
2013-01-29 10:18:00,33.5,32.7,30.09,North,350,2.0,4.0,97,0.04,,,0.06,VWS V14.01,2013-01-29 15:18:00,
2013-01-29 10:23:00,33.7,32.9,30.08,North,350,3.0,4.0,97,0.04,,,0.06,VWS V14.01,2013-01-29 15:23:00,
2013-01-29 10:28:00,34.0,33.2,30.08,North,350,0.0,4.0,97,0.04,,,0.06,VWS V14.01,2013-01-29 15:28:00,
2013-01-29 10:30:00,35.6,34.8,30.09,NE,53,2.0,4.0,97,0.07,,,0.11,VWS V14.01,2013-01-29 15:30:00,
2013-01-29 10:33:00,34.1,33.3,30.09,NNW,331,0.0,1.0,97,0.04,,,0.07,VWS V14.01,2013-01-29 15:33:00,
2013-01-29 10:38:00,34.3,33.5,30.09,NNW,341,1.0,3.0,97,0.04,,,0.07,VWS V14.01,2013-01-29 15:38:00,
2013-01-29 10:43:00,34.4,33.6,30.09,NNW,341,0.0,3.0,97,0.05,,,0.08,VWS V14.01,2013-01-29 15:43:00,
2013-01-29 10:48:00,34.5,33.7,30.09,NNW,341,1.0,4.0,97,0.05,,,0.08,VWS V14.01,2013-01-29 15:48:00,
2013-01-29 10:53:00,34.6,33.8,30.09,NNW,341,1.0,4.0,97,0.06,,,0.09,VWS V14.01,2013-01-29 15:53:00,
2013-01-29 10:58:00,34.7,33.9,30.09,NNW,342,3.0,4.0,97,0.06,,,0.09,VWS V14.01,2013-01-29 15:58:00,
2013-01-29 11:00:00,35.2,34.4,30.09,North,5,0.0,5.0,97,0.05,,,0.12,VWS V14.01,2013-01-29 16:00:00,
2013-01-29 11:03:00,34.8,34.0,30.09,NNW,342,2.0,2.0,97,0.05,,,0.09,VWS V14.01,2013-01-29 16:03:00,
2013-01-29 11:08:00,35.0,34.2,30.09,NNW,342,1.0,2.0,97,0.06,,,0.10,VWS V14.01,2013-01-29 16:08:00,
2013-01-29 11:13:00,35.2,34.4,30.09,NNW,342,1.0,3.0,97,0.06,,,0.10,VWS V14.01,2013-01-29 16:13:00,
2013-01-29 11:18:00,35.2,34.4,30.09,NNW,342,0.0,4.0,97,0.06,,,0.10,VWS V14.01,2013-01-29 16:18:00,
2013-01-29 11:23:00,35.4,34.6,30.09,NNW,342,0.0,4.0,97,0.06,,,0.10,VWS V14.01,2013-01-29 16:23:00,
2013-01-29 11:28:00,35.7,34.9,30.09,NNW,342,0.0,4.0,97,0.07,,,0.11,VWS V14.01,2013-01-29 16:28:00,
2013-01-29 11:30:00,35.1,34.1,30.08,North,350,3.0,6.0,96,0.04,,,0.13,VWS V14.01,2013-01-29 16:30:00,
2013-01-29 11:33:00,35.5,34.7,30.09,NNE,13,2.0,3.0,97,0.04,,,0.11,VWS V14.01,2013-01-29 16:33:00,
2013-01-29 11:38:00,35.2,34.4,30.09,North,5,0.0,5.0,97,0.04,,,0.11,VWS V14.01,2013-01-29 16:38:00,
2013-01-29 11:43:00,35.3,34.5,30.09,North,5,0.0,5.0,97,0.05,,,0.12,VWS V14.01,2013-01-29 16:43:00,
2013-01-29 11:48:00,35.4,34.6,30.10,North,5,0.0,5.0,97,0.05,,,0.12,VWS V14.01,2013-01-29 16:48:00,
2013-01-29 11:53:00,35.3,34.5,30.10,North,5,1.0,5.0,97,0.05,,,0.12,VWS V14.01,2013-01-29 16:53:00,
2013-01-29 11:58:00,35.2,34.4,30.09,North,5,1.0,5.0,97,0.05,,,0.12,VWS V14.01,2013-01-29 16:58:00,
2013-01-29 12:00:00,35.7,34.7,30.08,NNE,28,1.0,6.0,96,0.02,,,0.13,VWS V14.01,2013-01-29 17:00:00,
2013-01-29 12:03:00,35.2,34.4,30.09,North,5,1.0,1.0,97,0.03,,,0.12,VWS V14.01,2013-01-29 17:03:00,
2013-01-29 12:08:00,35.3,34.5,30.09,North,5,2.0,3.0,97,0.03,,,0.12,VWS V14.01,2013-01-29 17:08:00,
2013-01-29 12:13:00,35.3,34.5,30.09,North,5,2.0,3.0,97,0.03,,,0.12,VWS V14.01,2013-01-29 17:13:00,
2013-01-29 12:18:00,35.2,34.2,30.08,North,5,1.0,3.0,96,0.03,,,0.12,VWS V14.01,2013-01-29 17:18:00,
2013-01-29 12:23:00,35.2,34.2,30.08,North,5,1.0,3.0,96,0.03,,,0.12,VWS V14.01,2013-01-29 17:23:00,
2013-01-29 12:28:00,35.3,34.5,30.08,NNW,336,2.0,5.0,97,0.04,,,0.13,VWS V14.01,2013-01-29 17:28:00,
2013-01-29 12:33:00,35.0,34.0,30.08,North,355,3.0,6.0,96,0.02,,,0.13,VWS V14.01,2013-01-29 17:33:00,
2013-01-29 12:38:00,34.9,33.9,30.08,North,350,0.0,6.0,96,0.02,,,0.13,VWS V14.01,2013-01-29 17:38:00,
2013-01-29 12:43:00,35.1,34.1,30.08,North,350,0.0,6.0,96,0.02,,,0.13,VWS V14.01,2013-01-29 17:43:00,
2013-01-29 12:48:00,35.3,34.5,30.08,North,350,3.0,6.0,97,0.02,,,0.13,VWS V14.01,2013-01-29 17:48:00,
2013-01-29 12:53:00,35.3,34.3,30.08,NNW,336,0.0,6.0,96,0.02,,,0.13,VWS V14.01,2013-01-29 17:53:00,
2013-01-29 12:58:00,35.5,34.5,30.09,NNW,336,1.0,6.0,96,0.02,,,0.13,VWS V14.01,2013-01-29 17:58:00,
2013-01-29 13:00:00,36.3,35.0,30.09,North,5,0.0,5.0,95,0.01,,,0.14,VWS V14.01,2013-01-29 18:00:00,
2013-01-29 13:03:00,35.7,34.9,30.09,NNE,28,1.0,3.0,97,0.01,,,0.13,VWS V14.01,2013-01-29 18:03:00,
2013-01-29 13:08:00,35.8,34.8,30.09,NNE,20,1.0,4.0,96,0.01,,,0.13,VWS V14.01,2013-01-29 18:08:00,
2013-01-29 13:13:00,35.8,34.8,30.09,North,11,2.0,4.0,96,0.01,,,0.13,VWS V14.01,2013-01-29 18:13:00,
2013-01-29 13:18:00,35.9,34.9,30.08,North,11,0.0,4.0,96,0.01,,,0.13,VWS V14.01,2013-01-29 18:18:00,
2013-01-29 13:23:00,35.9,34.9,30.08,North,11,3.0,4.0,96,0.01,,,0.13,VWS V14.01,2013-01-29 18:23:00,
2013-01-29 13:28:00,35.8,34.8,30.08,North,11,0.0,4.0,96,0.01,,,0.13,VWS V14.01,2013-01-29 18:28:00,
2013-01-29 13:33:00,36.0,35.0,30.08,North,11,1.0,1.0,96,0.00,,,0.13,VWS V14.01,2013-01-29 18:33:00,
2013-01-29 13:38:00,36.0,35.0,30.08,North,11,2.0,5.0,96,0.00,,,0.13,VWS V14.01,2013-01-29 18:38:00,
2013-01-29 13:43:00,36.0,35.0,30.08,North,11,0.0,5.0,96,0.00,,,0.13,VWS V14.01,2013-01-29 18:43:00,
2013-01-29 13:48:00,36.0,35.0,30.08,North,5,0.0,5.0,96,0.01,,,0.14,VWS V14.01,2013-01-29 18:48:00,
2013-01-29 13:53:00,36.1,35.1,30.09,North,5,0.0,5.0,96,0.01,,,0.14,VWS V14.01,2013-01-29 18:53:00,
2013-01-29 13:58:00,36.2,34.9,30.09,North,5,0.0,5.0,95,0.01,,,0.14,VWS V14.01,2013-01-29 18:58:00,
2013-01-29 14:03:00,36.3,35.0,30.09,North,5,0.0,0.0,95,0.01,,,0.14,VWS V14.01,2013-01-29 19:03:00,
2013-01-29 14:08:00,36.3,35.0,30.09,North,5,1.0,2.0,95,0.01,,,0.14,VWS V14.01,2013-01-29 19:08:00,
2013-01-29 14:13:00,36.3,35.0,30.09,North,5,0.0,2.0,95,0.01,,,0.14,VWS V14.01,2013-01-29 19:13:00,
2013-01-29 14:18:00,36.2,34.9,30.10,North,5,0.0,2.0,95,0.01,,,0.14,VWS V14.01,2013-01-29 19:18:00,
2013-01-29 14:23:00,36.2,34.9,30.10,North,5,0.0,2.0,95,0.01,,,0.14,VWS V14.01,2013-01-29 19:23:00,
2013-01-29 14:28:00,36.1,34.5,30.10,North,5,1.0,2.0,94,0.01,,,0.14,VWS V14.01,2013-01-29 19:28:00,
2013-01-29 14:33:00,36.1,34.5,30.10,North,5,1.0,1.0,94,0.01,,,0.14,VWS V14.01,2013-01-29 19:33:00,
2013-01-29 14:38:00,36.1,34.5,30.09,North,5,3.0,3.0,94,0.01,,,0.14,VWS V14.01,2013-01-29 19:38:00,
2013-01-29 14:43:00,36.0,34.4,30.10,North,5,0.0,4.0,94,0.01,,,0.14,VWS V14.01,2013-01-29 19:43:00,
2013-01-29 14:48:00,35.9,34.3,30.10,North,5,0.0,4.0,94,0.01,,,0.14,VWS V14.01,2013-01-29 19:48:00,
2013-01-29 14:53:00,35.9,34.3,30.10,North,5,0.0,4.0,94,0.01,,,0.14,VWS V14.01,2013-01-29 19:53:00,
2013-01-29 14:57:00,35.9,34.6,30.11,North,5,1.0,4.0,95,0.01,,,0.14,VWS V14.01,2013-01-29 19:57:00,
2013-01-29 15:00:00,35.8,34.5,30.09,NE,53,0.0,3.0,95,0.00,,,0.14,VWS V14.01,2013-01-29 20:00:00,
2013-01-29 15:02:00,35.9,34.6,30.11,North,5,1.0,4.0,95,0.01,,,0.14,VWS V14.01,2013-01-29 20:02:00,
2013-01-29 15:07:00,36.0,34.7,30.11,North,5,1.0,2.0,95,0.00,,,0.14,VWS V14.01,2013-01-29 20:07:00,
2013-01-29 15:12:00,36.0,34.7,30.10,North,5,0.0,2.0,95,0.00,,,0.14,VWS V14.01,2013-01-29 20:12:00,
2013-01-29 15:17:00,36.1,34.8,30.11,North,5,3.0,3.0,95,0.00,,,0.14,VWS V14.01,2013-01-29 20:17:00,
2013-01-29 15:22:00,36.1,34.8,30.11,North,5,0.0,3.0,95,0.00,,,0.14,VWS V14.01,2013-01-29 20:22:00,
2013-01-29 15:27:00,36.0,34.7,30.10,North,5,0.0,3.0,95,0.00,,,0.14,VWS V14.01,2013-01-29 20:27:00,
2013-01-29 15:30:00,35.6,34.3,30.09,NE,53,0.0,2.0,95,0.00,,,0.14,VWS V14.01,2013-01-29 20:30:00,
2013-01-29 15:32:00,36.1,34.8,30.10,North,5,1.0,1.0,95,0.00,,,0.14,VWS V14.01,2013-01-29 20:32:00,
2013-01-29 15:37:00,36.0,34.7,30.10,North,5,0.0,3.0,95,0.00,,,0.14,VWS V14.01,2013-01-29 20:37:00,
2013-01-29 15:42:00,36.1,34.8,30.10,North,360,2.0,3.0,95,0.00,,,0.14,VWS V14.01,2013-01-29 20:42:00,
2013-01-29 15:47:00,36.1,34.8,30.10,North,360,0.0,3.0,95,0.00,,,0.14,VWS V14.01,2013-01-29 20:47:00,
2013-01-29 15:52:00,36.0,34.7,30.09,NE,53,0.0,3.0,95,0.00,,,0.14,VWS V14.01,2013-01-29 20:52:00,
2013-01-29 15:57:00,36.0,34.7,30.09,NE,53,2.0,3.0,95,0.00,,,0.14,VWS V14.01,2013-01-29 20:57:00,
2013-01-29 16:00:00,35.3,34.0,30.11,NE,53,0.0,1.0,95,0.00,,,0.14,VWS V14.01,2013-01-29 21:00:00,
2013-01-29 16:02:00,35.8,34.5,30.09,NE,53,0.0,3.0,95,0.00,,,0.14,VWS V14.01,2013-01-29 21:02:00,
2013-01-29 16:07:00,35.9,34.6,30.09,NE,53,0.0,2.0,95,0.00,,,0.14,VWS V14.01,2013-01-29 21:07:00,
2013-01-29 16:12:00,35.9,34.6,30.09,NE,53,0.0,2.0,95,0.00,,,0.14,VWS V14.01,2013-01-29 21:12:00,
2013-01-29 16:17:00,35.8,34.5,30.09,NE,53,0.0,2.0,95,0.00,,,0.14,VWS V14.01,2013-01-29 21:17:00,
2013-01-29 16:22:00,35.7,34.4,30.09,NE,53,0.0,2.0,95,0.00,,,0.14,VWS V14.01,2013-01-29 21:22:00,
2013-01-29 16:27:00,35.7,34.4,30.09,NE,53,0.0,2.0,95,0.00,,,0.14,VWS V14.01,2013-01-29 21:27:00,
2013-01-29 16:30:00,35.1,33.8,30.10,NE,53,0.0,0.0,95,0.00,,,0.14,VWS V14.01,2013-01-29 21:30:00,
2013-01-29 16:32:00,35.6,34.3,30.09,NE,53,0.0,2.0,95,0.00,,,0.14,VWS V14.01,2013-01-29 21:32:00,
2013-01-29 16:37:00,35.6,34.3,30.09,NE,53,0.0,0.0,95,0.00,,,0.14,VWS V14.01,2013-01-29 21:37:00,
2013-01-29 16:42:00,35.6,34.3,30.10,NE,53,0.0,1.0,95,0.00,,,0.14,VWS V14.01,2013-01-29 21:42:00,
2013-01-29 16:47:00,35.5,34.2,30.10,NE,53,0.0,1.0,95,0.00,,,0.14,VWS V14.01,2013-01-29 21:47:00,
2013-01-29 16:52:00,35.5,34.2,30.10,NE,53,0.0,1.0,95,0.00,,,0.14,VWS V14.01,2013-01-29 21:52:00,
2013-01-29 16:57:00,35.4,34.1,30.10,NE,53,0.0,1.0,95,0.00,,,0.14,VWS V14.01,2013-01-29 21:57:00,
2013-01-29 17:02:00,35.4,34.1,30.10,NE,53,0.0,0.0,95,0.00,,,0.14,VWS V14.01,2013-01-29 22:02:00,
2013-01-29 17:07:00,35.3,34.0,30.10,NE,53,0.0,0.0,95,0.00,,,0.14,VWS V14.01,2013-01-29 22:07:00,
2013-01-29 17:12:00,35.3,34.0,30.10,NE,53,0.0,0.0,95,0.00,,,0.14,VWS V14.01,2013-01-29 22:12:00,
2013-01-29 17:17:00,35.3,34.0,30.10,NE,53,0.0,0.0,95,0.00,,,0.14,VWS V14.01,2013-01-29 22:17:00,
2013-01-29 17:22:00,35.2,33.9,30.10,NE,53,0.0,0.0,95,0.00,,,0.14,VWS V14.01,2013-01-29 22:22:00,
2013-01-29 17:27:00,35.2,33.9,30.10,NE,53,0.0,0.0,95,0.00,,,0.14,VWS V14.01,2013-01-29 22:27:00,
2013-01-29 17:32:00,35.1,33.8,30.10,NE,53,0.0,0.0,95,0.00,,,0.14,VWS V14.01,2013-01-29 22:32:00,
2013-01-29 17:37:00,35.1,34.1,30.11,NE,53,0.0,0.0,96,0.00,,,0.14,VWS V14.01,2013-01-29 22:37:00,
2013-01-29 17:42:00,35.1,34.1,30.11,NE,53,0.0,0.0,96,0.00,,,0.14,VWS V14.01,2013-01-29 22:42:00,
2013-01-29 17:47:00,35.1,34.1,30.12,NE,53,0.0,0.0,96,0.00,,,0.14,VWS V14.01,2013-01-29 22:47:00,
2013-01-29 17:52:00,35.1,34.1,30.12,NE,53,0.0,0.0,96,0.00,,,0.14,VWS V14.01,2013-01-29 22:52:00,
2013-01-29 17:57:00,35.0,34.0,30.12,NE,53,0.0,0.0,96,0.00,,,0.14,VWS V14.01,2013-01-29 22:57:00,
2013-01-29 18:02:00,35.1,34.1,30.12,NE,53,0.0,0.0,96,0.00,,,0.14,VWS V14.01,2013-01-29 23:02:00,
2013-01-29 18:07:00,35.0,34.0,30.11,NE,53,0.0,0.0,96,0.00,,,0.14,VWS V14.01,2013-01-29 23:07:00,
2013-01-29 18:12:00,34.9,33.9,30.11,NE,53,0.0,0.0,96,0.00,,,0.14,VWS V14.01,2013-01-29 23:12:00,
2013-01-29 18:17:00,34.8,33.8,30.11,NE,53,0.0,0.0,96,0.00,,,0.14,VWS V14.01,2013-01-29 23:17:00,
2013-01-29 18:22:00,34.8,33.8,30.11,NE,53,0.0,0.0,96,0.00,,,0.14,VWS V14.01,2013-01-29 23:22:00,
2013-01-29 18:27:00,34.8,33.8,30.12,NE,53,0.0,0.0,96,0.00,,,0.14,VWS V14.01,2013-01-29 23:27:00,
2013-01-29 18:32:00,34.8,33.8,30.12,NE,53,0.0,0.0,96,0.00,,,0.14,VWS V14.01,2013-01-29 23:32:00,
2013-01-29 18:37:00,34.8,33.8,30.12,NE,53,0.0,1.0,96,0.00,,,0.14,VWS V14.01,2013-01-29 23:37:00,
2013-01-29 18:42:00,34.7,33.7,30.12,NE,53,0.0,1.0,96,0.00,,,0.14,VWS V14.01,2013-01-29 23:42:00,
2013-01-29 18:47:00,34.7,33.7,30.11,NE,53,0.0,1.0,96,0.00,,,0.14,VWS V14.01,2013-01-29 23:47:00,
2013-01-29 18:52:00,34.6,33.6,30.11,NE,53,0.0,1.0,96,0.00,,,0.14,VWS V14.01,2013-01-29 23:52:00,
2013-01-29 18:57:00,34.5,33.5,30.10,NE,53,0.0,1.0,96,0.00,,,0.14,VWS V14.01,2013-01-29 23:57:00,
2013-01-29 19:02:00,34.4,33.4,30.11,NE,53,0.0,1.0,96,0.00,,,0.14,VWS V14.01,2013-01-30 00:02:00,
2013-01-29 19:07:00,34.4,33.4,30.12,NE,53,0.0,1.0,96,0.00,,,0.14,VWS V14.01,2013-01-30 00:07:00,
2013-01-29 19:12:00,34.3,33.3,30.12,NE,53,0.0,1.0,96,0.00,,,0.14,VWS V14.01,2013-01-30 00:12:00,
2013-01-29 19:17:00,34.3,33.3,30.12,NE,53,0.0,1.0,96,0.00,,,0.14,VWS V14.01,2013-01-30 00:17:00,
2013-01-29 19:22:00,34.3,33.3,30.13,NE,53,1.0,1.0,96,0.00,,,0.14,VWS V14.01,2013-01-30 00:22:00,
2013-01-29 19:27:00,34.4,33.6,30.12,NE,53,0.0,1.0,97,0.00,,,0.14,VWS V14.01,2013-01-30 00:27:00,
2013-01-29 19:30:00,34.6,33.8,30.11,NE,53,0.0,2.0,97,0.00,,,0.14,VWS V14.01,2013-01-30 00:30:00,
2013-01-29 19:32:00,34.3,33.5,30.13,NE,53,0.0,0.0,97,0.00,,,0.14,VWS V14.01,2013-01-30 00:32:00,
2013-01-29 19:37:00,34.3,33.5,30.12,NE,53,0.0,0.0,97,0.00,,,0.14,VWS V14.01,2013-01-30 00:37:00,
2013-01-29 19:42:00,34.3,33.5,30.12,NE,53,0.0,1.0,97,0.00,,,0.14,VWS V14.01,2013-01-30 00:42:00,
2013-01-29 19:47:00,34.3,33.5,30.12,NE,53,0.0,1.0,97,0.00,,,0.14,VWS V14.01,2013-01-30 00:47:00,
2013-01-29 19:52:00,34.2,33.4,30.12,NE,53,0.0,1.0,97,0.00,,,0.14,VWS V14.01,2013-01-30 00:52:00,
2013-01-29 19:57:00,34.2,33.4,30.12,NE,53,0.0,1.0,97,0.00,,,0.14,VWS V14.01,2013-01-30 00:57:00,
2013-01-29 20:00:00,34.5,33.7,30.10,NE,53,1.0,2.0,97,0.00,,,0.14,VWS V14.01,2013-01-30 01:00:00,
2013-01-29 20:02:00,34.3,33.5,30.11,NE,53,1.0,1.0,97,0.00,,,0.14,VWS V14.01,2013-01-30 01:02:00,
2013-01-29 20:07:00,34.3,33.5,30.11,NE,53,0.0,2.0,97,0.00,,,0.14,VWS V14.01,2013-01-30 01:07:00,
2013-01-29 20:12:00,34.3,33.5,30.11,NE,53,0.0,2.0,97,0.00,,,0.14,VWS V14.01,2013-01-30 01:12:00,
2013-01-29 20:17:00,34.4,33.6,30.11,NE,53,0.0,2.0,97,0.00,,,0.14,VWS V14.01,2013-01-30 01:17:00,
2013-01-29 20:22:00,34.5,33.7,30.11,NE,53,2.0,2.0,97,0.00,,,0.14,VWS V14.01,2013-01-30 01:22:00,
2013-01-29 20:27:00,34.5,33.7,30.11,NE,53,0.0,2.0,97,0.00,,,0.14,VWS V14.01,2013-01-30 01:27:00,
2013-01-29 20:30:00,34.7,33.9,30.11,NE,53,0.0,1.0,97,0.00,,,0.14,VWS V14.01,2013-01-30 01:30:00,
2013-01-29 20:32:00,34.6,33.8,30.11,NE,53,0.0,2.0,97,0.00,,,0.14,VWS V14.01,2013-01-30 01:32:00,
2013-01-29 20:37:00,34.6,33.8,30.12,NE,53,0.0,0.0,97,0.00,,,0.14,VWS V14.01,2013-01-30 01:37:00,
2013-01-29 20:42:00,34.6,33.8,30.11,NE,53,0.0,0.0,97,0.00,,,0.14,VWS V14.01,2013-01-30 01:42:00,
2013-01-29 20:47:00,34.6,33.8,30.11,NE,53,0.0,0.0,97,0.00,,,0.14,VWS V14.01,2013-01-30 01:47:00,
2013-01-29 20:52:00,34.5,33.7,30.11,NE,53,0.0,0.0,97,0.00,,,0.14,VWS V14.01,2013-01-30 01:52:00,
2013-01-29 20:57:00,34.4,33.6,30.11,NE,53,1.0,1.0,97,0.00,,,0.14,VWS V14.01,2013-01-30 01:57:00,
2013-01-29 21:00:00,34.2,33.4,30.09,NE,53,0.0,3.0,97,0.00,,,0.14,VWS V14.01,2013-01-30 02:00:00,
2013-01-29 21:02:00,34.5,33.7,30.10,NE,53,1.0,2.0,97,0.00,,,0.14,VWS V14.01,2013-01-30 02:02:00,
2013-01-29 21:07:00,34.5,33.7,30.10,NE,53,0.0,1.0,97,0.00,,,0.14,VWS V14.01,2013-01-30 02:07:00,
2013-01-29 21:12:00,34.6,33.8,30.10,NE,53,0.0,1.0,97,0.00,,,0.14,VWS V14.01,2013-01-30 02:12:00,
2013-01-29 21:17:00,34.7,33.9,30.10,NE,53,0.0,1.0,97,0.00,,,0.14,VWS V14.01,2013-01-30 02:17:00,
2013-01-29 21:22:00,34.7,33.9,30.11,NE,53,0.0,1.0,97,0.00,,,0.14,VWS V14.01,2013-01-30 02:22:00,
2013-01-29 21:27:00,34.7,33.9,30.11,NE,53,0.0,1.0,97,0.00,,,0.14,VWS V14.01,2013-01-30 02:27:00,
2013-01-29 21:32:00,34.7,33.9,30.11,NE,53,0.0,1.0,97,0.00,,,0.14,VWS V14.01,2013-01-30 02:32:00,
2013-01-29 21:37:00,34.7,33.9,30.11,NE,53,0.0,0.0,97,0.00,,,0.14,VWS V14.01,2013-01-30 02:37:00,
2013-01-29 21:42:00,34.7,33.9,30.12,NE,53,0.0,1.0,97,0.00,,,0.14,VWS V14.01,2013-01-30 02:42:00,
2013-01-29 21:47:00,34.5,33.7,30.12,NE,53,1.0,2.0,97,0.00,,,0.14,VWS V14.01,2013-01-30 02:47:00,
2013-01-29 21:52:00,34.4,33.6,30.11,NE,53,1.0,3.0,97,0.00,,,0.14,VWS V14.01,2013-01-30 02:52:00,
2013-01-29 21:57:00,34.3,33.5,30.10,NE,53,0.0,3.0,97,0.00,,,0.14,VWS V14.01,2013-01-30 02:57:00,
2013-01-29 22:00:00,35.7,35.2,30.09,NE,53,0.0,2.0,98,0.00,,,0.14,VWS V14.01,2013-01-30 03:00:00,
2013-01-29 22:02:00,34.2,33.4,30.09,NE,53,0.0,3.0,97,0.00,,,0.14,VWS V14.01,2013-01-30 03:02:00,
2013-01-29 22:07:00,34.2,33.4,30.09,NE,53,0.0,1.0,97,0.00,,,0.14,VWS V14.01,2013-01-30 03:07:00,
2013-01-29 22:12:00,34.2,33.4,30.09,NE,53,0.0,1.0,97,0.00,,,0.14,VWS V14.01,2013-01-30 03:12:00,
2013-01-29 22:17:00,34.3,33.5,30.09,NE,53,0.0,1.0,97,0.00,,,0.14,VWS V14.01,2013-01-30 03:17:00,
2013-01-29 22:22:00,34.4,33.6,30.08,NE,53,1.0,2.0,97,0.00,,,0.14,VWS V14.01,2013-01-30 03:22:00,
2013-01-29 22:27:00,34.5,33.7,30.08,NE,53,0.0,2.0,97,0.00,,,0.14,VWS V14.01,2013-01-30 03:27:00,
2013-01-29 22:30:00,36.1,35.6,30.08,NE,53,2.0,3.0,98,0.01,,,0.15,VWS V14.01,2013-01-30 03:30:00,
2013-01-29 22:32:00,34.6,34.1,30.08,NE,53,0.0,2.0,98,0.00,,,0.14,VWS V14.01,2013-01-30 03:32:00,
2013-01-29 22:37:00,34.7,33.9,30.08,NE,53,0.0,0.0,97,0.00,,,0.14,VWS V14.01,2013-01-30 03:37:00,
2013-01-29 22:42:00,34.7,34.2,30.08,NE,53,0.0,0.0,98,0.00,,,0.14,VWS V14.01,2013-01-30 03:42:00,
2013-01-29 22:47:00,34.9,34.4,30.08,NE,53,0.0,2.0,98,0.00,,,0.14,VWS V14.01,2013-01-30 03:47:00,
2013-01-29 22:52:00,35.1,34.3,30.08,NE,53,2.0,2.0,97,0.00,,,0.14,VWS V14.01,2013-01-30 03:52:00,
2013-01-29 22:57:00,35.5,35.0,30.08,NE,53,0.0,2.0,98,0.00,,,0.14,VWS V14.01,2013-01-30 03:57:00,
2013-01-29 23:02:00,35.6,35.1,30.09,NE,53,0.0,2.0,98,0.00,,,0.14,VWS V14.01,2013-01-30 04:02:00,
2013-01-29 23:07:00,35.8,35.3,30.09,NE,53,0.0,1.0,98,0.00,,,0.14,VWS V14.01,2013-01-30 04:07:00,
2013-01-29 23:12:00,35.8,35.3,30.08,NE,53,1.0,1.0,98,0.00,,,0.14,VWS V14.01,2013-01-30 04:12:00,
2013-01-29 23:17:00,35.8,35.3,30.08,NE,53,1.0,2.0,98,0.01,,,0.15,VWS V14.01,2013-01-30 04:17:00,
2013-01-29 23:22:00,35.9,35.4,30.08,NE,53,1.0,3.0,98,0.01,,,0.15,VWS V14.01,2013-01-30 04:22:00,
2013-01-29 23:27:00,36.0,35.5,30.08,NE,53,1.0,3.0,98,0.01,,,0.15,VWS V14.01,2013-01-30 04:27:00,
2013-01-29 23:30:00,37.0,36.5,30.09,SE,130,2.0,4.0,98,0.05,,,0.04,VWS V14.01,2013-01-30 04:30:00,
2013-01-29 23:32:00,36.1,35.6,30.08,NE,53,1.0,3.0,98,0.01,,,0.15,VWS V14.01,2013-01-30 04:32:00,
2013-01-29 23:37:00,36.2,35.7,30.08,NE,53,2.0,3.0,98,0.01,,,0.15,VWS V14.01,2013-01-30 04:37:00,
2013-01-29 23:42:00,36.4,35.9,30.08,SE,128,3.0,4.0,98,0.01,,,0.15,VWS V14.01,2013-01-30 04:42:00,
2013-01-29 23:47:00,36.6,36.1,30.08,SE,128,2.0,4.0,98,0.01,,,0.15,VWS V14.01,2013-01-30 04:47:00,
2013-01-29 23:52:00,36.7,36.2,30.08,SE,127,2.0,4.0,98,0.01,,,0.15,VWS V14.01,2013-01-30 04:52:00,
2013-01-29 23:57:00,36.7,36.2,30.08,SE,129,2.0,6.0,98,0.01,,,0.15,VWS V14.01,2013-01-30 04:57:00,